Ana Sayfa
METAR-TAF:

METAR-TAF

Havaalanları :

Cibuti, Cibuti

Enlem: 11-33N, Boylam: 043-10E, yükseklik: 49 m

Güncel hava durumu gözlemi

Rapor saat 15:00 UTC de 29 dakika önce yapıldı.
Rüzgar doğu/güneydoğudan 9 kt
Sıcaklık 31°C
Nem 79%
Basınç 1008 hPa
Görüş mesafesi 10 km veya daha fazla
1500 m altında bulut yok ve kümülonimbus yok

METAR: HDAM 261500Z 11009KT CAVOK 31/27 Q1008

Saat: 18:29 (15:29 UTC)

Tahmin

Rapor saat 11:00 UTC de 4 saat ve 29 dakika önce yapıldı.
Ayın 26'si saat 12 UTC'den ayın 27'si saat 12 UTC'ye kadar geçerli Tahmin
Rüzgar kuzeydan kt
Görüş mesafesi 10 km veya daha fazla
2000 ft yükseklikte parçalı bulutlu
2000 ft yükseklikte parçalı bulutlu
2000 ft yükseklikte parçalı bulutlu
13300 ft yükseklikte parçalı bulutlu

TAF: HDAM 261100Z 2612/2712 08010KT 9999 SCT020 BCMG 2615/2618 VRB03KT SCT020 BCMG 2700/2706 00000KT SCT020 SCT133

4.000'den fazla havaalanı için hava durumu gözlemleri ve tahminleri (METAR ve TAF raporları).

Kullanılabilir istasyonlar harita üzerinde sarı ve kırmızı noktalarla gösterilir.

İstasyonun adını görmek için fareyi noktanın üzerinde gezdirin.

Sonrasında hava gözlem ve tahminlerini görmek için tıklayın.

Haritayı değiştirmek için: yaklaştırmak için siyah artı işaretli yeşil düğmeye ve uzaklaştırmak için de eksi işaretli düğmeye hızla tıklayın; bitişik haritalar için yeşil okları kullanın.


METAR-TAF: